sensor_id;sensor_type;location;lat;lon;timestamp;pressure;altitude;pressure_sealevel;temperature;humidity
64066;BME280;50318;54.760;9.408;2022-09-28T00:00:15;99100.13;;;12.43;66.67
64066;BME280;50318;54.760;9.408;2022-09-28T00:02:40;99099.38;;;12.43;66.74
64066;BME280;50318;54.760;9.408;2022-09-28T00:05:06;99092.63;;;12.44;67.12
64066;BME280;50318;54.760;9.408;2022-09-28T00:07:32;99091.88;;;12.49;67.18
64066;BME280;50318;54.760;9.408;2022-09-28T00:09:58;99091.16;;;12.54;67.58
64066;BME280;50318;54.760;9.408;2022-09-28T00:12:24;99090.13;;;12.57;67.92
64066;BME280;50318;54.760;9.408;2022-09-28T00:14:50;99097.38;;;12.60;67.02
64066;BME280;50318;54.760;9.408;2022-09-28T00:17:15;99090.13;;;12.63;67.19
64066;BME280;50318;54.760;9.408;2022-09-28T00:19:46;99088.88;;;12.64;67.75
64066;BME280;50318;54.760;9.408;2022-09-28T00:22:12;99087.63;;;12.65;67.06
64066;BME280;50318;54.760;9.408;2022-09-28T00:24:38;99092.63;;;12.66;67.01
64066;BME280;50318;54.760;9.408;2022-09-28T00:27:04;99091.13;;;12.65;66.97
64066;BME280;50318;54.760;9.408;2022-09-28T00:29:33;99079.88;;;12.63;66.74
64066;BME280;50318;54.760;9.408;2022-09-28T00:32:02;99082.63;;;12.63;67.30
64066;BME280;50318;54.760;9.408;2022-09-28T00:34:30;99082.88;;;12.65;67.61
64066;BME280;50318;54.760;9.408;2022-09-28T00:36:57;99075.88;;;12.64;67.64
64066;BME280;50318;54.760;9.408;2022-09-28T00:39:23;99080.13;;;12.65;67.58
64066;BME280;50318;54.760;9.408;2022-09-28T00:41:49;99068.88;;;12.63;67.54
64066;BME280;50318;54.760;9.408;2022-09-28T00:46:50;99066.84;;;12.69;67.38
64066;BME280;50318;54.760;9.408;2022-09-28T00:49:23;99069.59;;;12.69;66.73
64066;BME280;50318;54.760;9.408;2022-09-28T00:51:53;99072.09;;;12.73;67.15
64066;BME280;50318;54.760;9.408;2022-09-28T00:54:19;99072.09;;;12.73;67.00
64066;BME280;50318;54.760;9.408;2022-09-28T00:56:45;99067.09;;;12.71;67.40
64066;BME280;50318;54.760;9.408;2022-09-28T00:59:13;99070.34;;;12.75;67.33
64066;BME280;50318;54.760;9.408;2022-09-28T01:01:39;99071.81;;;12.76;67.12
64066;BME280;50318;54.760;9.408;2022-09-28T01:04:06;99063.34;;;12.74;67.48
64066;BME280;50318;54.760;9.408;2022-09-28T01:06:34;99062.31;;;12.77;67.33
64066;BME280;50318;54.760;9.408;2022-09-28T01:09:06;99063.59;;;12.82;68.11
64066;BME280;50318;54.760;9.408;2022-09-28T01:11:35;99060.59;;;12.80;67.92
64066;BME280;50318;54.760;9.408;2022-09-28T01:14:05;99064.56;;;12.84;66.46
64066;BME280;50318;54.760;9.408;2022-09-28T01:27:38;99059.63;;;12.60;66.77
64066;BME280;50318;54.760;9.408;2022-09-28T01:30:09;99069.88;;;12.66;67.42
64066;BME280;50318;54.760;9.408;2022-09-28T01:38:13;99066.84;;;12.69;67.68
64066;BME280;50318;54.760;9.408;2022-09-28T01:40:37;99051.84;;;12.70;67.35
64066;BME280;50318;54.760;9.408;2022-09-28T01:43:15;99057.84;;;12.69;67.54
64066;BME280;50318;54.760;9.408;2022-09-28T01:45:48;99054.63;;;12.65;67.45
64066;BME280;50318;54.760;9.408;2022-09-28T01:48:25;99055.59;;;12.67;67.55
64066;BME280;50318;54.760;9.408;2022-09-28T01:50:57;99062.34;;;12.66;67.64
64066;BME280;50318;54.760;9.408;2022-09-28T01:53:34;99065.34;;;12.68;67.45
64066;BME280;50318;54.760;9.408;2022-09-28T01:56:12;99053.34;;;12.71;67.71
64066;BME280;50318;54.760;9.408;2022-09-28T01:58:51;99048.84;;;12.68;66.94
64066;BME280;50318;54.760;9.408;2022-09-28T02:01:23;99051.34;;;12.72;67.27
64066;BME280;50318;54.760;9.408;2022-09-28T02:04:09;99055.59;;;12.73;67.64
64066;BME280;50318;54.760;9.408;2022-09-28T02:06:42;99059.09;;;12.73;67.48
64066;BME280;50318;54.760;9.408;2022-09-28T02:09:16;99047.09;;;12.71;67.49
64066;BME280;50318;54.760;9.408;2022-09-28T02:11:50;99052.31;;;12.74;67.48
64066;BME280;50318;54.760;9.408;2022-09-28T02:14:19;99043.59;;;12.70;67.29
64066;BME280;50318;54.760;9.408;2022-09-28T02:16:50;99046.34;;;12.70;67.54
64066;BME280;50318;54.760;9.408;2022-09-28T02:19:26;99050.84;;;12.73;67.54
64066;BME280;50318;54.760;9.408;2022-09-28T02:22:13;99047.84;;;12.71;67.07
64066;BME280;50318;54.760;9.408;2022-09-28T02:24:54;99051.34;;;12.66;67.23
64066;BME280;50318;54.760;9.408;2022-09-28T02:27:48;99050.84;;;12.68;67.41
64066;BME280;50318;54.760;9.408;2022-09-28T02:30:19;99055.59;;;12.67;67.53
64066;BME280;50318;54.760;9.408;2022-09-28T02:33:16;99057.09;;;12.68;67.89
64066;BME280;50318;54.760;9.408;2022-09-28T02:35:43;99060.09;;;12.70;67.97
64066;BME280;50318;54.760;9.408;2022-09-28T02:38:10;99057.84;;;12.74;68.45
64066;BME280;50318;54.760;9.408;2022-09-28T02:40:36;99060.06;;;12.76;67.98
64066;BME280;50318;54.760;9.408;2022-09-28T02:51:30;99062.84;;;12.81;68.08
64066;BME280;50318;54.760;9.408;2022-09-28T03:02:29;99056.28;;;12.96;68.20
64066;BME280;50318;54.760;9.408;2022-09-28T03:05:20;99051.50;;;12.96;68.26
64066;BME280;50318;54.760;9.408;2022-09-28T03:08:03;99057.75;;;12.97;68.14
64066;BME280;50318;54.760;9.408;2022-09-28T03:10:49;99053.75;;;12.98;68.06
64066;BME280;50318;54.760;9.408;2022-09-28T03:13:18;99053.25;;;12.99;67.52
64066;BME280;50318;54.760;9.408;2022-09-28T03:15:44;99054.50;;;12.98;67.55
64066;BME280;50318;54.760;9.408;2022-09-28T03:18:10;99046.75;;;12.97;67.74
64066;BME280;50318;54.760;9.408;2022-09-28T03:20:36;99049.50;;;12.97;67.53
64066;BME280;50318;54.760;9.408;2022-09-28T03:23:13;99049.28;;;12.95;67.52
64066;BME280;50318;54.760;9.408;2022-09-28T03:25:39;99046.53;;;12.89;67.29
64066;BME280;50318;54.760;9.408;2022-09-28T03:28:05;99039.53;;;12.88;68.01
64066;BME280;50318;54.760;9.408;2022-09-28T03:30:42;99043.56;;;12.87;67.67
64066;BME280;50318;54.760;9.408;2022-09-28T03:33:08;99054.28;;;12.90;67.54
64066;BME280;50318;54.760;9.408;2022-09-28T03:35:34;99054.56;;;12.87;67.61
64066;BME280;50318;54.760;9.408;2022-09-28T03:38:01;99052.56;;;12.87;67.30
64066;BME280;50318;54.760;9.408;2022-09-28T03:40:29;99053.81;;;12.86;67.32
64066;BME280;50318;54.760;9.408;2022-09-28T03:42:54;99052.56;;;12.82;67.85
64066;BME280;50318;54.760;9.408;2022-09-28T03:45:20;99051.31;;;12.83;69.65
64066;BME280;50318;54.760;9.408;2022-09-28T03:47:48;99054.06;;;12.83;68.89
64066;BME280;50318;54.760;9.408;2022-09-28T03:50:34;99054.09;;;12.72;69.05
64066;BME280;50318;54.760;9.408;2022-09-28T03:53:03;99042.88;;;12.64;68.28
64066;BME280;50318;54.760;9.408;2022-09-28T03:55:47;99049.63;;;12.57;68.33
64066;BME280;50318;54.760;9.408;2022-09-28T03:58:13;99042.13;;;12.52;68.28
64066;BME280;50318;54.760;9.408;2022-09-28T04:00:39;99045.63;;;12.47;68.82
64066;BME280;50318;54.760;9.408;2022-09-28T04:03:05;99046.91;;;12.41;68.54
64066;BME280;50318;54.760;9.408;2022-09-28T04:05:31;99049.91;;;12.37;68.91
64066;BME280;50318;54.760;9.408;2022-09-28T04:07:57;99049.41;;;12.33;68.78
64066;BME280;50318;54.760;9.408;2022-09-28T04:10:26;99053.41;;;12.26;68.57
64066;BME280;50318;54.760;9.408;2022-09-28T04:12:56;99054.41;;;12.18;68.89
64066;BME280;50318;54.760;9.408;2022-09-28T04:15:23;99049.94;;;12.09;68.93
64066;BME280;50318;54.760;9.408;2022-09-28T04:17:50;99049.41;;;12.05;69.31
64066;BME280;50318;54.760;9.408;2022-09-28T04:20:33;99053.16;;;12.02;68.54
64066;BME280;50318;54.760;9.408;2022-09-28T04:23:02;99057.41;;;12.03;69.18
64066;BME280;50318;54.760;9.408;2022-09-28T04:25:28;99048.16;;;12.01;69.33
64066;BME280;50318;54.760;9.408;2022-09-28T04:27:55;99047.66;;;11.96;69.44
64066;BME280;50318;54.760;9.408;2022-09-28T04:30:39;99053.16;;;11.96;69.47
64066;BME280;50318;54.760;9.408;2022-09-28T04:33:05;99059.41;;;11.91;69.16
64066;BME280;50318;54.760;9.408;2022-09-28T04:35:30;99052.91;;;11.89;68.85
64066;BME280;50318;54.760;9.408;2022-09-28T04:37:56;99055.66;;;11.89;68.57
64066;BME280;50318;54.760;9.408;2022-09-28T04:40:22;99056.66;;;11.86;68.49
64066;BME280;50318;54.760;9.408;2022-09-28T04:42:54;99059.41;;;11.86;68.46
64066;BME280;50318;54.760;9.408;2022-09-28T04:45:21;99055.66;;;11.83;68.34
64066;BME280;50318;54.760;9.408;2022-09-28T04:47:46;99059.88;;;11.79;68.25
64066;BME280;50318;54.760;9.408;2022-09-28T04:50:28;99067.84;;;11.77;68.50
64066;BME280;50318;54.760;9.408;2022-09-28T04:53:26;99064.59;;;11.73;68.20
64066;BME280;50318;54.760;9.408;2022-09-28T04:56:02;99066.59;;;11.66;68.25
64066;BME280;50318;54.760;9.408;2022-09-28T04:58:29;99068.59;;;11.66;68.46
64066;BME280;50318;54.760;9.408;2022-09-28T05:00:59;99064.84;;;11.63;68.32
64066;BME280;50318;54.760;9.408;2022-09-28T05:03:44;99072.06;;;11.61;68.46
64066;BME280;50318;54.760;9.408;2022-09-28T05:06:24;99065.28;;;11.56;68.46
64066;BME280;50318;54.760;9.408;2022-09-28T05:08:58;99070.28;;;11.52;68.39
64066;BME280;50318;54.760;9.408;2022-09-28T05:11:24;99067.28;;;11.50;68.81
64066;BME280;50318;54.760;9.408;2022-09-28T05:13:50;99063.28;;;11.51;68.81
64066;BME280;50318;54.760;9.408;2022-09-28T05:16:16;99063.53;;;11.53;68.75
64066;BME280;50318;54.760;9.408;2022-09-28T05:19:11;99067.78;;;11.54;68.82
64066;BME280;50318;54.760;9.408;2022-09-28T05:21:37;99066.03;;;11.51;68.63
64066;BME280;50318;54.760;9.408;2022-09-28T05:24:03;99061.78;;;11.50;68.74
64066;BME280;50318;54.760;9.408;2022-09-28T05:26:32;99064.53;;;11.50;68.79
64066;BME280;50318;54.760;9.408;2022-09-28T05:28:58;99062.03;;;11.52;68.90
64066;BME280;50318;54.760;9.408;2022-09-28T05:31:42;99063.53;;;11.53;68.77
64066;BME280;50318;54.760;9.408;2022-09-28T05:34:16;99062.31;;;11.54;69.25
64066;BME280;50318;54.760;9.408;2022-09-28T05:36:42;99060.31;;;11.55;68.98
64066;BME280;50318;54.760;9.408;2022-09-28T05:39:10;99065.28;;;11.56;69.25
64066;BME280;50318;54.760;9.408;2022-09-28T05:41:35;99060.06;;;11.58;69.13
64066;BME280;50318;54.760;9.408;2022-09-28T05:44:01;99064.59;;;11.61;69.15
64066;BME280;50318;54.760;9.408;2022-09-28T05:46:28;99056.84;;;11.65;69.30
64066;BME280;50318;54.760;9.408;2022-09-28T05:48:56;99059.34;;;11.69;69.15
64066;BME280;50318;54.760;9.408;2022-09-28T05:51:24;99050.84;;;11.73;69.17
64066;BME280;50318;54.760;9.408;2022-09-28T05:53:50;99056.09;;;11.76;69.25
64066;BME280;50318;54.760;9.408;2022-09-28T05:56:18;99051.63;;;11.79;69.23
64066;BME280;50318;54.760;9.408;2022-09-28T05:59:05;99055.13;;;11.79;69.37
64066;BME280;50318;54.760;9.408;2022-09-28T06:01:31;99060.38;;;11.83;69.39
64066;BME280;50318;54.760;9.408;2022-09-28T06:03:58;99061.41;;;11.85;69.25
64066;BME280;50318;54.760;9.408;2022-09-28T06:06:24;99056.16;;;11.87;69.18
64066;BME280;50318;54.760;9.408;2022-09-28T06:08:50;99062.91;;;11.92;69.66
64066;BME280;50318;54.760;9.408;2022-09-28T06:11:27;99060.91;;;11.98;69.46
64066;BME280;50318;54.760;9.408;2022-09-28T06:13:55;99058.66;;;12.02;69.53
64066;BME280;50318;54.760;9.408;2022-09-28T06:16:21;99063.41;;;12.07;69.29
64066;BME280;50318;54.760;9.408;2022-09-28T06:18:46;99059.16;;;12.12;69.88
64066;BME280;50318;54.760;9.408;2022-09-28T06:21:31;99049.66;;;12.18;69.74
64066;BME280;50318;54.760;9.408;2022-09-28T06:23:56;99053.16;;;12.24;69.57
64066;BME280;50318;54.760;9.408;2022-09-28T06:26:22;99056.41;;;12.28;69.67
64066;BME280;50318;54.760;9.408;2022-09-28T06:28:48;99056.69;;;12.31;69.40
64066;BME280;50318;54.760;9.408;2022-09-28T06:31:15;99053.41;;;12.32;69.51
64066;BME280;50318;54.760;9.408;2022-09-28T06:33:46;99063.41;;;12.35;69.37
64066;BME280;50318;54.760;9.408;2022-09-28T06:36:12;99054.91;;;12.39;69.34
64066;BME280;50318;54.760;9.408;2022-09-28T06:38:37;99066.63;;;12.45;69.63
64066;BME280;50318;54.760;9.408;2022-09-28T06:41:03;99066.41;;;12.54;69.43
64066;BME280;50318;54.760;9.408;2022-09-28T06:43:31;99070.63;;;12.60;69.79
64066;BME280;50318;54.760;9.408;2022-09-28T06:46:11;99072.09;;;12.67;69.50
64066;BME280;50318;54.760;9.408;2022-09-28T06:49:38;99077.34;;;12.76;69.61
64066;BME280;50318;54.760;9.408;2022-09-28T06:52:12;99083.59;;;12.82;69.84
64066;BME280;50318;54.760;9.408;2022-09-28T06:54:57;99084.56;;;12.90;69.55
64066;BME280;50318;54.760;9.408;2022-09-28T06:57:31;99083.31;;;12.91;69.32
64066;BME280;50318;54.760;9.408;2022-09-28T07:00:06;99092.78;;;12.96;69.12
64066;BME280;50318;54.760;9.408;2022-09-28T07:02:31;99083.78;;;13.01;69.37
64066;BME280;50318;54.760;9.408;2022-09-28T07:05:33;99097.78;;;13.09;69.76
64066;BME280;50318;54.760;9.408;2022-09-28T07:08:22;99097.25;;;13.16;69.27
64066;BME280;50318;54.760;9.408;2022-09-28T07:11:07;99093.97;;;13.23;69.54
64066;BME280;50318;54.760;9.408;2022-09-28T07:14:02;99107.25;;;13.30;69.83
64066;BME280;50318;54.760;9.408;2022-09-28T07:16:48;99110.72;;;13.36;69.84
64066;BME280;50318;54.760;9.408;2022-09-28T07:19:14;99105.69;;;13.40;69.10
64066;BME280;50318;54.760;9.408;2022-09-28T07:21:41;99110.41;;;13.45;69.61
64066;BME280;50318;54.760;9.408;2022-09-28T07:24:07;99112.16;;;13.48;69.52
64066;BME280;50318;54.760;9.408;2022-09-28T07:27:08;99112.16;;;13.48;69.13
64066;BME280;50318;54.760;9.408;2022-09-28T07:29:44;99122.41;;;13.48;68.77
64066;BME280;50318;54.760;9.408;2022-09-28T07:32:24;99122.94;;;13.46;68.57
64066;BME280;50318;54.760;9.408;2022-09-28T07:35:13;99123.66;;;13.47;68.75
64066;BME280;50318;54.760;9.408;2022-09-28T07:37:45;99129.94;;;13.47;69.05
64066;BME280;50318;54.760;9.408;2022-09-28T07:40:14;99125.44;;;13.50;68.62
64066;BME280;50318;54.760;9.408;2022-09-28T07:43:05;99131.44;;;13.48;68.84
64066;BME280;50318;54.760;9.408;2022-09-28T07:45:30;99133.19;;;13.46;68.98
64066;BME280;50318;54.760;9.408;2022-09-28T07:48:03;99129.44;;;13.49;68.85
64066;BME280;50318;54.760;9.408;2022-09-28T07:50:49;99136.94;;;13.54;69.35
64066;BME280;50318;54.760;9.408;2022-09-28T07:53:45;99141.16;;;13.61;69.09
64066;BME280;50318;54.760;9.408;2022-09-28T07:56:44;99140.38;;;13.66;68.91
64066;BME280;50318;54.760;9.408;2022-09-28T07:59:25;99136.84;;;13.71;69.15
64066;BME280;50318;54.760;9.408;2022-09-28T08:02:29;99143.09;;;13.77;69.19
64066;BME280;50318;54.760;9.408;2022-09-28T08:05:00;99143.56;;;13.81;68.89
64066;BME280;50318;54.760;9.408;2022-09-28T08:07:26;99141.31;;;13.79;68.93
64066;BME280;50318;54.760;9.408;2022-09-28T08:10:03;99146.31;;;13.81;68.71
64066;BME280;50318;54.760;9.408;2022-09-28T08:12:30;99142.53;;;13.84;68.81
64066;BME280;50318;54.760;9.408;2022-09-28T08:15:03;99137.97;;;13.92;69.17
64066;BME280;50318;54.760;9.408;2022-09-28T08:17:54;99144.47;;;14.00;69.54
64066;BME280;50318;54.760;9.408;2022-09-28T08:20:21;99143.91;;;14.07;69.46
64066;BME280;50318;54.760;9.408;2022-09-28T08:23:06;99151.38;;;14.12;69.30
64066;BME280;50318;54.760;9.408;2022-09-28T08:25:33;99147.84;;;14.18;69.03
64066;BME280;50318;54.760;9.408;2022-09-28T08:28:02;99153.84;;;14.22;68.84
64066;BME280;50318;54.760;9.408;2022-09-28T08:30:30;99152.03;;;14.30;69.00
64066;BME280;50318;54.760;9.408;2022-09-28T08:33:13;99157.44;;;14.41;69.13
64066;BME280;50318;54.760;9.408;2022-09-28T08:35:41;99158.44;;;14.49;69.25
64066;BME280;50318;54.760;9.408;2022-09-28T08:38:39;99159.13;;;14.55;68.44
64066;BME280;50318;54.760;9.408;2022-09-28T08:44:07;99159.53;;;14.65;68.48
64066;BME280;50318;54.760;9.408;2022-09-28T08:46:59;99168.53;;;14.71;68.12
64066;BME280;50318;54.760;9.408;2022-09-28T08:49:49;99171.00;;;14.74;68.20
64066;BME280;50318;54.760;9.408;2022-09-28T08:52:19;99169.97;;;14.78;68.19
64066;BME280;50318;54.760;9.408;2022-09-28T08:55:12;99166.41;;;14.83;68.22
64066;BME280;50318;54.760;9.408;2022-09-28T08:57:43;99171.13;;;14.88;68.03
64066;BME280;50318;54.760;9.408;2022-09-28T09:00:16;99169.59;;;14.92;67.88
64066;BME280;50318;54.760;9.408;2022-09-28T09:02:43;99170.06;;;14.96;67.55
64066;BME280;50318;54.760;9.408;2022-09-28T09:05:16;99179.56;;;15.01;67.50
64066;BME280;50318;54.760;9.408;2022-09-28T09:08:11;99176.72;;;15.07;67.49
64066;BME280;50318;54.760;9.408;2022-09-28T09:10:45;99175.91;;;15.12;67.44
64066;BME280;50318;54.760;9.408;2022-09-28T09:16:12;99177.81;;;15.22;67.58
64066;BME280;50318;54.760;9.408;2022-09-28T09:19:13;99171.34;;;15.20;67.24
64066;BME280;50318;54.760;9.408;2022-09-28T09:21:58;99182.84;;;15.24;67.45
64066;BME280;50318;54.760;9.408;2022-09-28T09:24:33;99184.31;;;15.25;67.03
64066;BME280;50318;54.760;9.408;2022-09-28T09:27:17;99185.06;;;15.25;66.75
64066;BME280;50318;54.760;9.408;2022-09-28T09:32:22;99186.56;;;15.26;66.29
64066;BME280;50318;54.760;9.408;2022-09-28T09:46:57;99199.25;;;15.16;67.23
64066;BME280;50318;54.760;9.408;2022-09-28T09:49:37;99200.91;;;15.25;67.04
64066;BME280;50318;54.760;9.408;2022-09-28T09:52:26;99198.31;;;15.32;66.78
64066;BME280;50318;54.760;9.408;2022-09-28T09:54:58;99197.00;;;15.39;66.90
64066;BME280;50318;54.760;9.408;2022-09-28T09:57:56;99197.44;;;15.43;66.61
64066;BME280;50318;54.760;9.408;2022-09-28T10:00:47;99193.13;;;15.48;66.64
64066;BME280;50318;54.760;9.408;2022-09-28T10:03:32;99203.59;;;15.55;66.97
64066;BME280;50318;54.760;9.408;2022-09-28T10:06:18;99199.53;;;15.61;66.84
64066;BME280;50318;54.760;9.408;2022-09-28T10:09:07;99198.19;;;15.68;66.70
64066;BME280;50318;54.760;9.408;2022-09-28T10:11:36;99202.69;;;15.71;66.72
64066;BME280;50318;54.760;9.408;2022-09-28T10:14:07;99201.63;;;15.74;66.34
64066;BME280;50318;54.760;9.408;2022-09-28T10:16:40;99202.06;;;15.78;66.41
64066;BME280;50318;54.760;9.408;2022-09-28T10:19:13;99199.97;;;15.84;66.17
64066;BME280;50318;54.760;9.408;2022-09-28T10:21:58;99200.69;;;15.90;65.86
64066;BME280;50318;54.760;9.408;2022-09-28T10:24:33;99206.34;;;15.98;66.09
64066;BME280;50318;54.760;9.408;2022-09-28T10:27:04;99203.72;;;16.06;65.93
64066;BME280;50318;54.760;9.408;2022-09-28T10:29:37;99209.72;;;16.10;65.41
64066;BME280;50318;54.760;9.408;2022-09-28T10:32:16;99209.88;;;16.17;65.86
64066;BME280;50318;54.760;9.408;2022-09-28T10:34:41;99206.94;;;16.28;65.12
64066;BME280;50318;54.760;9.408;2022-09-28T10:37:13;99213.38;;;16.37;64.91
64066;BME280;50318;54.760;9.408;2022-09-28T10:40:02;99220.09;;;16.41;64.45
64066;BME280;50318;54.760;9.408;2022-09-28T10:42:32;99196.31;;;16.33;64.01
64066;BME280;50318;54.760;9.408;2022-09-28T10:45:20;99219.78;;;16.45;63.61
64066;BME280;50318;54.760;9.408;2022-09-28T10:47:47;99216.47;;;16.46;63.59
64066;BME280;50318;54.760;9.408;2022-09-28T10:50:19;99222.47;;;16.50;63.63
64066;BME280;50318;54.760;9.408;2022-09-28T10:52:46;99219.59;;;16.56;64.20
64066;BME280;50318;54.760;9.408;2022-09-28T10:55:31;99225.38;;;16.58;63.53
64066;BME280;50318;54.760;9.408;2022-09-28T10:57:58;99224.31;;;16.61;63.85
64066;BME280;50318;54.760;9.408;2022-09-28T11:00:36;99227.53;;;16.65;64.08
64066;BME280;50318;54.760;9.408;2022-09-28T11:03:26;99219.47;;;16.67;63.95
64066;BME280;50318;54.760;9.408;2022-09-28T11:06:04;99228.75;;;16.70;63.75
64066;BME280;50318;54.760;9.408;2022-09-28T11:08:38;99222.28;;;16.80;63.92
64066;BME280;50318;54.760;9.408;2022-09-28T11:11:14;99226.66;;;16.89;63.75
64066;BME280;50318;54.760;9.408;2022-09-28T11:18:48;99227.00;;;16.99;63.09
64066;BME280;50318;54.760;9.408;2022-09-28T11:21:20;99223.81;;;16.95;62.75
64066;BME280;50318;54.760;9.408;2022-09-28T11:24:06;99232.63;;;16.93;62.81
64066;BME280;50318;54.760;9.408;2022-09-28T11:26:43;99231.69;;;16.91;62.64
64066;BME280;50318;54.760;9.408;2022-09-28T11:32:10;99220.13;;;16.73;61.82
64066;BME280;50318;54.760;9.408;2022-09-28T11:34:54;99233.31;;;16.67;62.06
64066;BME280;50318;54.760;9.408;2022-09-28T11:47:59;99241.91;;;16.64;61.76
64066;BME280;50318;54.760;9.408;2022-09-28T11:58:38;99224.53;;;16.95;62.75
64066;BME280;50318;54.760;9.408;2022-09-28T12:04:11;99238.47;;;17.35;62.29
64066;BME280;50318;54.760;9.408;2022-09-28T12:06:46;99233.25;;;17.44;61.69
64066;BME280;50318;54.760;9.408;2022-09-28T12:09:21;99236.56;;;17.56;61.28
64066;BME280;50318;54.760;9.408;2022-09-28T12:11:59;99227.72;;;17.58;59.85
64066;BME280;50318;54.760;9.408;2022-09-28T12:14:54;99240.41;;;17.53;59.72
64066;BME280;50318;54.760;9.408;2022-09-28T12:17:25;99231.63;;;17.49;59.71
64066;BME280;50318;54.760;9.408;2022-09-28T12:20:00;99234.19;;;17.47;59.99
64066;BME280;50318;54.760;9.408;2022-09-28T12:22:31;99228.66;;;17.47;59.96
64066;BME280;50318;54.760;9.408;2022-09-28T12:24:59;99232.69;;;17.46;59.67
64066;BME280;50318;54.760;9.408;2022-09-28T12:27:36;99229.84;;;17.38;59.29
64066;BME280;50318;54.760;9.408;2022-09-28T12:32:33;99233.56;;;17.28;60.02
64066;BME280;50318;54.760;9.408;2022-09-28T12:35:26;99229.06;;;17.25;59.81
64066;BME280;50318;54.760;9.408;2022-09-28T12:45:55;99231.63;;;17.23;60.49
64066;BME280;50318;54.760;9.408;2022-09-28T12:53:45;99229.28;;;17.40;60.13
64066;BME280;50318;54.760;9.408;2022-09-28T12:56:33;99222.91;;;17.45;59.98
64066;BME280;50318;54.760;9.408;2022-09-28T12:59:38;99220.88;;;17.45;59.77
64066;BME280;50318;54.760;9.408;2022-09-28T13:05:57;99231.22;;;17.45;60.12
64066;BME280;50318;54.760;9.408;2022-09-28T13:10:17;99228.56;;;17.39;59.90
64066;BME280;50318;54.760;9.408;2022-09-28T13:25:21;99238.47;;;17.61;60.33
64066;BME280;50318;54.760;9.408;2022-09-28T13:27:57;99239.13;;;17.67;59.82
64066;BME280;50318;54.760;9.408;2022-09-28T13:30:25;99226.44;;;17.72;59.96
64066;BME280;50318;54.760;9.408;2022-09-28T13:32:52;99228.66;;;17.73;59.66
64066;BME280;50318;54.760;9.408;2022-09-28T13:35:20;99228.25;;;17.69;59.54
64066;BME280;50318;54.760;9.408;2022-09-28T13:37:46;99223.31;;;17.62;59.00
64066;BME280;50318;54.760;9.408;2022-09-28T13:40:13;99234.53;;;17.57;58.62
64066;BME280;50318;54.760;9.408;2022-09-28T13:55:32;99239.75;;;17.34;60.36
64066;BME280;50318;54.760;9.408;2022-09-28T14:06:08;99245.59;;;17.30;59.74
64066;BME280;50318;54.760;9.408;2022-09-28T14:14:05;99243.97;;;17.08;58.37
64066;BME280;50318;54.760;9.408;2022-09-28T14:16:47;99242.81;;;17.04;58.82
64066;BME280;50318;54.760;9.408;2022-09-28T14:19:15;99248.34;;;17.04;59.25
64066;BME280;50318;54.760;9.408;2022-09-28T14:24:10;99256.41;;;17.02;59.80
64066;BME280;50318;54.760;9.408;2022-09-28T14:31:54;99254.03;;;16.93;60.60
64066;BME280;50318;54.760;9.408;2022-09-28T14:34:23;99253.94;;;16.98;61.07
64066;BME280;50318;54.760;9.408;2022-09-28T14:36:49;99259.91;;;17.02;60.85
64066;BME280;50318;54.760;9.408;2022-09-28T14:39:33;99265.69;;;17.04;60.70
64066;BME280;50318;54.760;9.408;2022-09-28T14:42:20;99271.25;;;17.04;60.81
64066;BME280;50318;54.760;9.408;2022-09-28T14:47:35;99272.97;;;17.21;60.83
64066;BME280;50318;54.760;9.408;2022-09-28T14:50:23;99276.53;;;17.34;61.02
64066;BME280;50318;54.760;9.408;2022-09-28T14:52:50;99276.63;;;17.42;60.60
64066;BME280;50318;54.760;9.408;2022-09-28T14:55:19;99277.47;;;17.50;60.32
64066;BME280;50318;54.760;9.408;2022-09-28T14:57:52;99277.72;;;17.52;59.72
64066;BME280;50318;54.760;9.408;2022-09-28T15:00:20;99269.16;;;17.50;59.59
64066;BME280;50318;54.760;9.408;2022-09-28T15:02:47;99271.28;;;17.44;59.23
64066;BME280;50318;54.760;9.408;2022-09-28T15:05:34;99273.53;;;17.32;59.29
64066;BME280;50318;54.760;9.408;2022-09-28T15:08:02;99276.16;;;17.25;59.39
64066;BME280;50318;54.760;9.408;2022-09-28T15:10:31;99278.50;;;17.21;59.42
64066;BME280;50318;54.760;9.408;2022-09-28T15:12:58;99275.53;;;17.18;59.40
64066;BME280;50318;54.760;9.408;2022-09-28T15:15:26;99284.06;;;17.21;59.77
64066;BME280;50318;54.760;9.408;2022-09-28T15:18:03;99284.06;;;17.21;59.73
64066;BME280;50318;54.760;9.408;2022-09-28T15:20:38;99279.03;;;17.19;59.56
64066;BME280;50318;54.760;9.408;2022-09-28T15:23:36;99278.81;;;17.17;59.16
64066;BME280;50318;54.760;9.408;2022-09-28T15:26:04;99287.13;;;17.17;59.28
64066;BME280;50318;54.760;9.408;2022-09-28T15:28:32;99301.31;;;17.13;59.01
64066;BME280;50318;54.760;9.408;2022-09-28T15:30:59;99292.34;;;17.07;58.70
64066;BME280;50318;54.760;9.408;2022-09-28T15:33:27;99284.81;;;16.89;58.72
64066;BME280;50318;54.760;9.408;2022-09-28T15:36:13;99299.19;;;16.87;58.42
64066;BME280;50318;54.760;9.408;2022-09-28T15:38:50;99292.53;;;16.77;58.47
64066;BME280;50318;54.760;9.408;2022-09-28T15:41:21;99302.72;;;16.69;58.80
64066;BME280;50318;54.760;9.408;2022-09-28T15:46:48;99305.19;;;16.54;59.52
64066;BME280;50318;54.760;9.408;2022-09-28T15:49:21;99296.97;;;16.48;59.86
64066;BME280;50318;54.760;9.408;2022-09-28T15:51:48;99303.53;;;16.45;60.10
64066;BME280;50318;54.760;9.408;2022-09-28T15:54:26;99300.13;;;16.39;60.24
64066;BME280;50318;54.760;9.408;2022-09-28T15:56:58;99303.72;;;16.34;60.64
64066;BME280;50318;54.760;9.408;2022-09-28T15:59:25;99314.09;;;16.28;60.48
64066;BME280;50318;54.760;9.408;2022-09-28T16:02:11;99317.66;;;16.23;60.38
64066;BME280;50318;54.760;9.408;2022-09-28T16:09:54;99318.09;;;16.08;60.38
64066;BME280;50318;54.760;9.408;2022-09-28T16:12:22;99316.38;;;16.05;60.45
64066;BME280;50318;54.760;9.408;2022-09-28T16:14:52;99315.41;;;16.03;60.78
64066;BME280;50318;54.760;9.408;2022-09-28T16:17:24;99309.63;;;16.01;60.90
64066;BME280;50318;54.760;9.408;2022-09-28T16:20:01;99310.16;;;15.99;61.02